createdAt,value
2022-12-27T00:00:30.034Z,0.00
2022-12-27T00:01:29.972Z,0.00
2022-12-27T00:02:29.997Z,0.00
2022-12-27T00:03:29.908Z,0.00
2022-12-27T00:04:29.935Z,0.00
2022-12-27T00:05:29.873Z,0.00
2022-12-27T00:06:29.831Z,0.00
2022-12-27T00:07:29.792Z,0.00
2022-12-27T00:08:29.767Z,0.00
2022-12-27T00:09:29.794Z,0.00
2022-12-27T00:10:29.717Z,0.00
2022-12-27T00:11:29.673Z,0.00
2022-12-27T00:12:29.652Z,0.00
2022-12-27T00:13:29.617Z,0.00
2022-12-27T00:14:29.649Z,0.00
2022-12-27T00:15:29.567Z,0.00
2022-12-27T00:16:29.575Z,0.00
2022-12-27T00:17:29.518Z,0.00
2022-12-27T00:18:29.486Z,0.00
2022-12-27T00:19:29.544Z,0.00
2022-12-27T00:20:29.434Z,0.00
2022-12-27T00:21:29.411Z,0.00
2022-12-27T00:22:29.369Z,0.00
2022-12-27T00:23:29.327Z,0.00
2022-12-27T00:24:29.352Z,0.00
2022-12-27T00:25:29.277Z,0.00
2022-12-27T00:26:29.238Z,0.00
2022-12-27T00:27:29.478Z,0.00
2022-12-27T00:28:29.185Z,0.00
2022-12-27T00:29:29.216Z,0.00
2022-12-27T00:30:29.123Z,0.00
2022-12-27T00:31:29.146Z,0.00
2022-12-27T00:32:29.064Z,0.00
2022-12-27T00:33:29.033Z,0.00
2022-12-27T00:34:29.058Z,0.00
2022-12-27T00:35:28.978Z,0.00
2022-12-27T00:36:28.951Z,0.00
2022-12-27T00:37:28.932Z,0.00
2022-12-27T00:38:28.896Z,0.00
2022-12-27T00:39:28.861Z,0.00
2022-12-27T00:40:28.879Z,0.00
2022-12-27T00:41:28.803Z,0.00
2022-12-27T00:42:28.774Z,0.00
2022-12-27T00:43:28.757Z,0.00
2022-12-27T00:44:28.720Z,0.00
2022-12-27T00:45:28.755Z,0.00
2022-12-27T00:46:28.671Z,0.00
2022-12-27T00:47:28.626Z,0.00
2022-12-27T00:48:28.605Z,0.00
2022-12-27T00:49:28.570Z,0.00
2022-12-27T00:50:28.591Z,0.00
2022-12-27T00:51:28.525Z,0.00
2022-12-27T00:52:28.498Z,0.00
2022-12-27T00:53:28.474Z,0.00
2022-12-27T00:54:28.424Z,0.00
2022-12-27T00:55:28.441Z,0.00
2022-12-27T00:56:28.394Z,0.00
2022-12-27T00:57:28.340Z,0.00
2022-12-27T00:58:28.305Z,0.00
2022-12-27T00:59:28.283Z,0.00
2022-12-27T01:00:28.296Z,0.00
2022-12-27T01:01:28.389Z,0.00
2022-12-27T01:02:28.194Z,0.00
2022-12-27T01:03:28.190Z,0.00
2022-12-27T01:04:28.149Z,0.00
2022-12-27T01:05:28.155Z,0.00
2022-12-27T01:06:28.071Z,0.00
2022-12-27T01:07:28.046Z,0.00
2022-12-27T01:08:28.014Z,0.00
2022-12-27T01:09:28.008Z,0.00
2022-12-27T01:10:28.009Z,0.00
2022-12-27T01:11:27.925Z,0.00
2022-12-27T01:12:27.901Z,0.00
2022-12-27T01:13:27.875Z,0.00
2022-12-27T01:14:27.841Z,0.00
2022-12-27T01:15:27.859Z,0.00
2022-12-27T01:16:27.843Z,0.00
2022-12-27T01:17:27.747Z,0.00
2022-12-27T01:18:27.736Z,0.00
2022-12-27T01:19:27.693Z,0.00
2022-12-27T01:20:27.712Z,0.00
2022-12-27T01:21:27.628Z,0.00
2022-12-27T01:22:27.604Z,0.00
2022-12-27T01:23:27.585Z,0.00
2022-12-27T01:24:27.546Z,0.00
2022-12-27T01:25:27.626Z,0.00
2022-12-27T01:26:27.553Z,0.00
2022-12-27T01:27:27.455Z,0.00
2022-12-27T01:28:27.430Z,0.00
2022-12-27T01:29:27.400Z,0.00
2022-12-27T01:30:27.579Z,0.00
2022-12-27T01:31:27.388Z,0.00
2022-12-27T01:32:27.310Z,0.00
2022-12-27T01:33:27.280Z,0.00
2022-12-27T01:34:27.269Z,0.00
2022-12-27T01:35:27.270Z,0.00
2022-12-27T01:36:27.197Z,0.00
2022-12-27T01:37:27.162Z,0.00
2022-12-27T01:38:27.147Z,0.00
2022-12-27T01:39:27.104Z,0.00
2022-12-27T01:40:27.177Z,0.00
2022-12-27T01:41:27.135Z,0.00
2022-12-27T01:42:27.017Z,0.00
2022-12-27T01:43:26.985Z,0.00
2022-12-27T01:44:26.966Z,0.00
2022-12-27T01:45:27.132Z,0.00
2022-12-27T01:46:26.901Z,0.00
2022-12-27T01:47:26.872Z,0.00
2022-12-27T01:48:26.841Z,0.00
2022-12-27T01:49:26.810Z,0.00
2022-12-27T01:50:26.831Z,0.00
2022-12-27T01:51:26.757Z,0.00
2022-12-27T01:52:26.783Z,0.00
2022-12-27T01:53:26.695Z,0.00
2022-12-27T01:54:26.668Z,0.00
2022-12-27T01:55:26.693Z,0.00
2022-12-27T01:56:26.610Z,0.00
2022-12-27T01:57:26.652Z,0.00
2022-12-27T01:58:26.555Z,0.00
2022-12-27T01:59:26.516Z,0.00
2022-12-27T02:00:26.600Z,0.00
2022-12-27T02:01:26.527Z,0.00
2022-12-27T02:02:26.515Z,0.00
2022-12-27T02:03:26.398Z,0.00
2022-12-27T02:04:26.384Z,0.00
2022-12-27T02:05:26.402Z,0.00
2022-12-27T02:06:26.314Z,0.00
2022-12-27T02:07:26.280Z,0.00
2022-12-27T02:08:26.266Z,0.00
2022-12-27T02:09:26.225Z,0.00
2022-12-27T02:10:26.247Z,0.00
2022-12-27T02:11:26.163Z,0.00
2022-12-27T02:12:26.134Z,0.00
2022-12-27T02:13:26.129Z,0.00
2022-12-27T02:14:28.065Z,0.00
2022-12-27T02:15:26.096Z,0.00
2022-12-27T02:16:26.034Z,0.00
2022-12-27T02:17:25.983Z,0.00
2022-12-27T02:18:25.959Z,0.00
2022-12-27T02:19:25.928Z,0.00
2022-12-27T02:20:25.981Z,0.00
2022-12-27T02:21:25.868Z,0.00
2022-12-27T02:22:25.850Z,0.00
2022-12-27T02:23:25.813Z,0.00
2022-12-27T02:24:25.779Z,0.00
2022-12-27T02:25:25.799Z,0.00
2022-12-27T02:26:25.727Z,0.00
2022-12-27T02:27:25.688Z,0.00
2022-12-27T02:28:25.670Z,0.00
2022-12-27T02:29:25.652Z,0.00
2022-12-27T02:30:25.654Z,0.00
2022-12-27T02:31:25.571Z,0.00
2022-12-27T02:32:25.544Z,0.00
2022-12-27T02:33:25.515Z,0.00
2022-12-27T02:34:25.486Z,0.00
2022-12-27T02:35:25.466Z,0.00
2022-12-27T02:36:25.433Z,0.00
2022-12-27T02:37:25.396Z,0.00
2022-12-27T02:38:25.369Z,0.00
2022-12-27T02:39:25.338Z,0.00
2022-12-27T02:40:25.366Z,0.00
2022-12-27T02:41:25.280Z,0.00
2022-12-27T02:42:25.250Z,0.00
2022-12-27T02:43:25.224Z,0.00
2022-12-27T02:44:25.201Z,0.00
2022-12-27T02:45:25.228Z,0.00
2022-12-27T02:46:25.211Z,0.00
2022-12-27T02:47:25.101Z,0.00
2022-12-27T02:48:25.095Z,0.00
2022-12-27T02:49:25.047Z,0.00
2022-12-27T02:50:25.080Z,0.00
2022-12-27T02:51:24.990Z,0.00
2022-12-27T02:52:24.967Z,0.00
2022-12-27T02:53:24.926Z,0.00
2022-12-27T02:54:24.893Z,0.00
2022-12-27T02:55:24.967Z,0.00
2022-12-27T02:56:24.841Z,0.00
2022-12-27T02:57:24.805Z,0.00
2022-12-27T02:58:24.789Z,0.00
2022-12-27T02:59:24.747Z,0.00
2022-12-27T03:00:24.769Z,0.00
2022-12-27T03:01:24.810Z,0.00
2022-12-27T03:02:24.838Z,0.00
2022-12-27T03:03:24.639Z,0.00
2022-12-27T03:04:24.600Z,0.00
2022-12-27T03:05:24.623Z,0.00
2022-12-27T03:06:24.542Z,0.00
2022-12-27T03:07:24.514Z,0.00
2022-12-27T03:08:24.489Z,0.00
2022-12-27T03:09:24.455Z,0.00
2022-12-27T03:10:24.436Z,0.00
2022-12-27T03:11:24.445Z,0.00
2022-12-27T03:12:24.369Z,0.00
2022-12-27T03:13:24.343Z,0.00
2022-12-27T03:14:24.308Z,0.00
2022-12-27T03:15:26.899Z,0.00
2022-12-27T03:16:24.347Z,0.00
2022-12-27T03:17:24.241Z,0.00
2022-12-27T03:18:24.191Z,0.00
2022-12-27T03:19:24.162Z,0.00
2022-12-27T03:20:24.136Z,0.00
2022-12-27T03:21:24.103Z,0.00
2022-12-27T03:22:24.078Z,0.00
2022-12-27T03:23:24.042Z,0.00
2022-12-27T03:24:24.028Z,0.00
2022-12-27T03:25:23.986Z,0.00
2022-12-27T03:26:23.954Z,0.00
2022-12-27T03:27:23.926Z,0.00
2022-12-27T03:28:23.896Z,0.00
2022-12-27T03:29:23.868Z,0.00
2022-12-27T03:30:23.846Z,0.00
2022-12-27T03:31:23.809Z,0.00
2022-12-27T03:32:23.787Z,0.00
2022-12-27T03:33:23.772Z,0.00
2022-12-27T03:34:23.725Z,0.00
2022-12-27T03:35:23.688Z,0.00
2022-12-27T03:36:23.665Z,0.00
2022-12-27T03:37:23.644Z,0.00
2022-12-27T03:38:23.599Z,0.00
2022-12-27T03:39:23.574Z,0.00
2022-12-27T03:40:23.542Z,0.00
2022-12-27T03:41:23.531Z,0.00
2022-12-27T03:42:23.483Z,0.00
2022-12-27T03:43:23.480Z,0.00
2022-12-27T03:44:23.424Z,0.00
2022-12-27T03:45:23.394Z,0.00
2022-12-27T03:46:23.401Z,0.00
2022-12-27T03:47:23.342Z,0.00
2022-12-27T03:48:23.304Z,0.00
2022-12-27T03:49:23.306Z,0.00
2022-12-27T03:50:23.249Z,0.00
2022-12-27T03:51:23.256Z,0.00
2022-12-27T03:52:23.189Z,0.00
2022-12-27T03:53:23.163Z,0.00
2022-12-27T03:54:23.131Z,0.00
2022-12-27T03:55:26.114Z,0.00
2022-12-27T03:56:23.069Z,0.00
2022-12-27T03:57:23.053Z,0.00
2022-12-27T03:58:23.015Z,0.00
2022-12-27T03:59:22.980Z,0.00
2022-12-27T04:00:22.951Z,0.00
2022-12-27T04:01:23.036Z,0.00
2022-12-27T04:02:23.157Z,0.00
2022-12-27T04:03:22.881Z,0.00
2022-12-27T04:04:22.842Z,0.00
2022-12-27T04:05:22.825Z,0.00
2022-12-27T04:06:22.776Z,0.00
2022-12-27T04:07:22.746Z,0.00
2022-12-27T04:08:22.714Z,0.00
2022-12-27T04:09:22.686Z,0.00
2022-12-27T04:10:22.659Z,0.00
2022-12-27T04:11:22.625Z,0.00
2022-12-27T04:12:22.595Z,0.00
2022-12-27T04:13:22.572Z,0.00
2022-12-27T04:14:22.543Z,0.00
2022-12-27T04:15:22.507Z,0.00
2022-12-27T04:16:22.532Z,0.00
2022-12-27T04:17:22.446Z,0.00
2022-12-27T04:18:22.421Z,0.00
2022-12-27T04:19:22.390Z,0.00
2022-12-27T04:20:22.356Z,0.00
2022-12-27T04:21:22.351Z,0.00
2022-12-27T04:22:22.300Z,0.00
2022-12-27T04:23:22.274Z,0.00
2022-12-27T04:24:22.240Z,0.00
2022-12-27T04:25:22.212Z,0.00
2022-12-27T04:26:22.191Z,0.00
2022-12-27T04:27:22.153Z,0.00
2022-12-27T04:28:22.123Z,0.00
2022-12-27T04:29:22.096Z,0.00
2022-12-27T04:30:22.067Z,0.00
2022-12-27T04:31:22.081Z,0.00
2022-12-27T04:32:22.003Z,0.00
2022-12-27T04:33:21.978Z,0.00
2022-12-27T04:34:21.945Z,0.00
2022-12-27T04:35:21.916Z,0.00
2022-12-27T04:36:21.889Z,0.00
2022-12-27T04:37:21.881Z,0.00
2022-12-27T04:38:21.828Z,0.00
2022-12-27T04:39:21.819Z,0.00
2022-12-27T04:40:21.770Z,0.00
2022-12-27T04:41:21.742Z,0.00
2022-12-27T04:42:21.714Z,0.00
2022-12-27T04:43:21.681Z,0.00
2022-12-27T04:44:21.650Z,0.00
2022-12-27T04:45:21.620Z,0.00
2022-12-27T04:46:21.637Z,0.00
2022-12-27T04:47:21.565Z,0.00
2022-12-27T04:48:21.537Z,0.00
2022-12-27T04:49:21.502Z,0.00
2022-12-27T04:50:21.473Z,0.00
2022-12-27T04:51:21.443Z,0.00
2022-12-27T04:52:21.414Z,0.00
2022-12-27T04:53:21.405Z,0.00
2022-12-27T04:54:21.354Z,0.00
2022-12-27T04:55:21.433Z,0.00
2022-12-27T04:56:21.294Z,0.00
2022-12-27T04:57:21.267Z,0.00
2022-12-27T04:58:21.235Z,0.00
2022-12-27T04:59:21.205Z,0.00
2022-12-27T05:00:21.176Z,0.00
2022-12-27T05:01:21.305Z,0.00
2022-12-27T05:02:21.269Z,0.00
2022-12-27T05:03:21.165Z,0.00
2022-12-27T05:04:21.061Z,0.00
2022-12-27T05:05:21.030Z,0.00
2022-12-27T05:06:21.002Z,0.00
2022-12-27T05:07:20.979Z,0.00
2022-12-27T05:08:20.951Z,0.00
2022-12-27T05:09:23.286Z,0.00
2022-12-27T05:10:20.880Z,0.00
2022-12-27T05:11:20.853Z,0.00
2022-12-27T05:12:20.821Z,0.00
2022-12-27T05:13:20.807Z,0.00
2022-12-27T05:14:20.764Z,0.00
2022-12-27T05:15:20.742Z,0.00
2022-12-27T05:16:20.754Z,0.00
2022-12-27T05:17:20.677Z,0.00
2022-12-27T05:18:20.646Z,0.00
2022-12-27T05:19:20.619Z,0.00
2022-12-27T05:20:20.601Z,0.00
2022-12-27T05:21:20.566Z,0.00
2022-12-27T05:22:20.527Z,0.00
2022-12-27T05:23:20.510Z,0.00
2022-12-27T05:24:20.481Z,0.00
2022-12-27T05:25:20.461Z,0.00
2022-12-27T05:26:20.412Z,0.00
2022-12-27T05:27:20.379Z,0.00
2022-12-27T05:28:20.356Z,0.00
2022-12-27T05:29:20.320Z,0.00
2022-12-27T05:30:20.291Z,0.00
2022-12-27T05:31:20.295Z,0.00
2022-12-27T05:32:20.238Z,0.00
2022-12-27T05:33:20.204Z,0.00
2022-12-27T05:34:20.177Z,0.00
2022-12-27T05:35:20.150Z,0.00
2022-12-27T05:36:20.115Z,0.00
2022-12-27T05:37:20.092Z,0.00
2022-12-27T05:38:20.058Z,0.00
2022-12-27T05:39:20.041Z,0.00
2022-12-27T05:40:20.011Z,0.00
2022-12-27T05:41:20.032Z,0.00
2022-12-27T05:42:19.938Z,0.00
2022-12-27T05:43:19.908Z,0.00
2022-12-27T05:44:19.882Z,0.00
2022-12-27T05:45:19.849Z,0.00
2022-12-27T05:46:19.832Z,0.00
2022-12-27T05:47:19.788Z,0.00
2022-12-27T05:48:19.760Z,0.00
2022-12-27T05:49:19.731Z,0.00
2022-12-27T05:50:19.722Z,0.00
2022-12-27T05:51:19.677Z,0.00
2022-12-27T05:52:19.642Z,0.00
2022-12-27T05:53:19.613Z,0.00
2022-12-27T05:54:19.587Z,0.00
2022-12-27T05:55:19.560Z,0.00
2022-12-27T05:56:19.529Z,0.00
2022-12-27T05:57:19.512Z,0.00
2022-12-27T05:58:19.464Z,0.00
2022-12-27T05:59:19.444Z,0.00
2022-12-27T06:00:19.412Z,0.00
2022-12-27T06:01:19.435Z,0.00
2022-12-27T06:02:19.469Z,0.00
2022-12-27T06:03:19.444Z,0.00
2022-12-27T06:04:19.296Z,0.00
2022-12-27T06:05:19.259Z,0.00
2022-12-27T06:06:19.229Z,0.00
2022-12-27T06:07:19.207Z,0.00
2022-12-27T06:08:19.172Z,0.00
2022-12-27T06:09:19.146Z,0.00
2022-12-27T06:10:19.115Z,0.00
2022-12-27T06:11:19.089Z,0.00
2022-12-27T06:12:19.088Z,0.00
2022-12-27T06:13:19.050Z,0.00
2022-12-27T06:14:18.993Z,0.00
2022-12-27T06:15:18.972Z,0.00
2022-12-27T06:16:18.994Z,0.00
2022-12-27T06:17:18.915Z,0.00
2022-12-27T06:18:18.877Z,0.00
2022-12-27T06:19:18.851Z,0.00
2022-12-27T06:20:18.819Z,0.00
2022-12-27T06:21:18.792Z,0.00
2022-12-27T06:22:18.765Z,0.00
2022-12-27T06:23:18.734Z,0.00
2022-12-27T06:24:18.707Z,0.00
2022-12-27T06:25:18.682Z,0.00
2022-12-27T06:26:18.642Z,0.00
2022-12-27T06:27:18.622Z,0.00
2022-12-27T06:28:18.585Z,0.00
2022-12-27T06:29:18.669Z,0.00
2022-12-27T06:30:18.523Z,0.00
2022-12-27T06:31:18.658Z,0.00
2022-12-27T06:32:18.466Z,0.00
2022-12-27T06:33:18.438Z,0.00
2022-12-27T06:34:18.505Z,0.00
2022-12-27T06:35:18.381Z,0.00
2022-12-27T06:36:18.351Z,0.00
2022-12-27T06:37:18.320Z,0.00
2022-12-27T06:38:18.288Z,0.00
2022-12-27T06:39:18.261Z,0.00
2022-12-27T06:40:18.236Z,0.00
2022-12-27T06:41:18.229Z,0.00
2022-12-27T06:42:18.173Z,0.00
2022-12-27T06:43:18.157Z,0.00
2022-12-27T06:44:18.113Z,0.00
2022-12-27T06:45:18.118Z,0.00
2022-12-27T06:46:18.652Z,0.00
2022-12-27T06:47:18.035Z,0.00
2022-12-27T06:48:17.998Z,0.00
2022-12-27T06:49:17.967Z,0.00
2022-12-27T06:50:17.955Z,0.00
2022-12-27T06:51:17.906Z,0.00
2022-12-27T06:52:17.881Z,0.00
2022-12-27T06:53:17.858Z,0.00
2022-12-27T06:54:17.828Z,0.00
2022-12-27T06:55:17.804Z,0.00
2022-12-27T06:56:17.771Z,0.00
2022-12-27T06:57:17.730Z,0.00
2022-12-27T06:58:17.700Z,0.00
2022-12-27T06:59:17.671Z,0.00
2022-12-27T07:00:17.647Z,0.00
2022-12-27T07:01:17.814Z,0.00
2022-12-27T07:02:17.845Z,0.00
2022-12-27T07:03:17.637Z,0.00
2022-12-27T07:04:17.525Z,0.00
2022-12-27T07:05:17.504Z,0.00
2022-12-27T07:06:17.477Z,0.00
2022-12-27T07:07:17.437Z,0.00
2022-12-27T07:08:17.418Z,0.00
2022-12-27T07:09:17.373Z,0.00
2022-12-27T07:10:17.348Z,0.00
2022-12-27T07:11:17.329Z,0.00
2022-12-27T07:12:17.294Z,0.00
2022-12-27T07:13:17.258Z,0.00
2022-12-27T07:14:17.227Z,0.00
2022-12-27T07:15:17.198Z,0.00
2022-12-27T07:16:17.194Z,0.00
2022-12-27T07:17:17.178Z,0.00
2022-12-27T07:18:17.111Z,0.00
2022-12-27T07:19:17.086Z,0.00
2022-12-27T07:20:17.062Z,0.00
2022-12-27T07:21:17.031Z,0.00
2022-12-27T07:22:17.000Z,0.00
2022-12-27T07:23:19.371Z,0.00
2022-12-27T07:24:16.934Z,0.00
2022-12-27T07:25:16.903Z,0.00
2022-12-27T07:26:16.875Z,0.00
2022-12-27T07:27:16.845Z,0.00
2022-12-27T07:28:16.819Z,0.00
2022-12-27T07:29:16.788Z,0.00
2022-12-27T07:30:16.760Z,0.00
2022-12-27T07:31:16.824Z,0.00
2022-12-27T07:32:16.703Z,0.00
2022-12-27T07:33:16.702Z,0.00
2022-12-27T07:34:16.656Z,0.00
2022-12-27T07:35:16.613Z,0.00
2022-12-27T07:36:16.579Z,0.00
2022-12-27T07:37:16.554Z,0.00
2022-12-27T07:38:16.524Z,0.00
2022-12-27T07:39:16.493Z,0.00
2022-12-27T07:40:16.466Z,0.00
2022-12-27T07:41:16.456Z,0.00
2022-12-27T07:42:16.420Z,0.00
2022-12-27T07:43:16.373Z,0.00
2022-12-27T07:44:16.343Z,0.00
2022-12-27T07:45:16.316Z,0.00
2022-12-27T07:46:16.382Z,0.00
2022-12-27T07:47:16.257Z,0.00
2022-12-27T07:48:16.234Z,0.00
2022-12-27T07:49:18.113Z,0.00
2022-12-27T07:50:16.173Z,0.00
2022-12-27T07:51:16.165Z,0.00
2022-12-27T07:52:16.114Z,0.00
2022-12-27T07:53:16.085Z,0.00
2022-12-27T07:54:16.056Z,0.00
2022-12-27T07:55:16.021Z,0.00
2022-12-27T07:56:21.703Z,0.00
2022-12-27T07:57:15.967Z,0.00
2022-12-27T07:58:15.933Z,0.00
2022-12-27T07:59:15.962Z,0.00
2022-12-27T08:00:15.878Z,0.00
2022-12-27T08:01:15.976Z,0.00
2022-12-27T08:02:15.900Z,0.00
2022-12-27T08:03:15.831Z,0.00
2022-12-27T08:04:15.760Z,0.00
2022-12-27T08:05:15.751Z,0.00
2022-12-27T08:06:15.698Z,0.00
2022-12-27T08:07:15.670Z,0.00
2022-12-27T08:08:15.657Z,0.00
2022-12-27T08:09:15.618Z,0.00
2022-12-27T08:10:15.582Z,0.00
2022-12-27T08:11:15.553Z,0.00
2022-12-27T08:12:15.520Z,0.00
2022-12-27T08:13:15.490Z,0.00
2022-12-27T08:14:15.468Z,0.00
2022-12-27T08:15:15.431Z,0.00
2022-12-27T08:16:15.435Z,0.00
2022-12-27T08:17:15.374Z,0.00
2022-12-27T08:18:15.345Z,0.00
2022-12-27T08:19:15.315Z,0.00
2022-12-27T08:20:15.287Z,0.00
2022-12-27T08:21:15.273Z,0.00
2022-12-27T08:22:15.226Z,0.00
2022-12-27T08:23:15.196Z,0.00
2022-12-27T08:24:15.170Z,0.00
2022-12-27T08:25:15.134Z,0.00
2022-12-27T08:26:15.122Z,0.00
2022-12-27T08:27:15.079Z,0.00
2022-12-27T08:28:15.051Z,0.00
2022-12-27T08:29:15.022Z,0.00
2022-12-27T08:30:14.992Z,0.00
2022-12-27T08:31:15.047Z,0.00
2022-12-27T08:32:14.933Z,0.00
2022-12-27T08:33:14.901Z,0.00
2022-12-27T08:34:14.874Z,0.00
2022-12-27T08:36:45.077Z,0.00
2022-12-27T08:37:14.806Z,0.00
2022-12-27T08:38:14.757Z,0.00
2022-12-27T08:39:14.730Z,0.00
2022-12-27T08:40:14.702Z,0.00
2022-12-27T08:41:14.670Z,0.00
2022-12-27T08:42:14.647Z,5.63
2022-12-27T08:43:14.664Z,0.00
2022-12-27T08:44:14.581Z,0.00
2022-12-27T08:45:14.554Z,5.63
2022-12-27T08:46:14.553Z,5.63
2022-12-27T08:47:14.492Z,5.63
2022-12-27T08:48:14.566Z,5.63
2022-12-27T08:49:14.438Z,5.63
2022-12-27T08:50:14.406Z,5.63
2022-12-27T08:51:18.559Z,5.63
2022-12-27T08:52:14.348Z,5.63
2022-12-27T08:53:14.336Z,5.63
2022-12-27T08:54:14.293Z,5.63
2022-12-27T08:55:14.260Z,5.63
2022-12-27T08:56:14.229Z,5.63
2022-12-27T08:57:14.199Z,5.63
2022-12-27T08:58:16.551Z,5.63
2022-12-27T08:59:14.142Z,5.63
2022-12-27T09:00:14.121Z,5.63
2022-12-27T09:01:14.195Z,5.63
2022-12-27T09:02:14.137Z,5.63
2022-12-27T09:03:14.056Z,5.63
2022-12-27T09:04:14.004Z,5.63
2022-12-27T09:05:13.968Z,5.63
2022-12-27T09:06:13.938Z,5.63
2022-12-27T09:07:13.910Z,5.63
2022-12-27T09:08:13.885Z,5.63
2022-12-27T09:09:13.866Z,5.63
2022-12-27T09:10:13.825Z,5.63
2022-12-27T09:11:13.791Z,5.63
2022-12-27T09:12:13.764Z,5.63
2022-12-27T09:13:13.734Z,5.63
2022-12-27T09:14:13.707Z,11.25
2022-12-27T09:15:13.675Z,5.63
2022-12-27T09:16:13.668Z,5.63
2022-12-27T09:17:13.631Z,5.63
2022-12-27T09:18:13.587Z,5.63
2022-12-27T09:19:13.557Z,11.25
2022-12-27T09:20:13.530Z,5.63
2022-12-27T09:21:13.513Z,11.25
2022-12-27T09:22:13.471Z,11.25
2022-12-27T09:23:13.442Z,11.25
2022-12-27T09:24:13.416Z,11.25
2022-12-27T09:25:13.493Z,11.25
2022-12-27T09:26:13.360Z,11.25
2022-12-27T09:27:13.327Z,5.63
2022-12-27T09:28:13.300Z,5.63
2022-12-27T09:29:13.267Z,5.63
2022-12-27T09:30:13.242Z,11.25
2022-12-27T09:31:13.277Z,28.13
2022-12-27T09:32:13.181Z,11.25
2022-12-27T09:33:13.152Z,28.13
2022-12-27T09:34:13.131Z,16.88
2022-12-27T09:35:13.093Z,5.63
2022-12-27T09:36:13.075Z,5.63
2022-12-27T09:37:13.032Z,11.25
2022-12-27T09:38:13.007Z,11.25
2022-12-27T09:39:12.977Z,5.63
2022-12-27T09:40:12.951Z,5.63
2022-12-27T09:41:16.539Z,16.88
2022-12-27T09:42:46.629Z,11.25
2022-12-27T09:43:23.913Z,22.50
2022-12-27T09:44:12.844Z,5.63
2022-12-27T09:45:12.804Z,16.88
2022-12-27T09:46:12.837Z,5.63
2022-12-27T09:47:12.747Z,0.00
2022-12-27T09:48:12.725Z,5.63
2022-12-27T09:49:12.695Z,5.63
2022-12-27T09:50:12.674Z,16.88
2022-12-27T09:51:12.627Z,16.88
2022-12-27T09:52:12.627Z,33.75
2022-12-27T09:53:12.570Z,22.50
2022-12-27T09:54:12.543Z,28.13
2022-12-27T09:55:12.517Z,33.75
2022-12-27T09:56:12.486Z,5.63
2022-12-27T09:57:20.673Z,5.63
2022-12-27T09:58:12.428Z,16.88
2022-12-27T09:59:12.451Z,39.38
2022-12-27T10:00:12.381Z,16.88
2022-12-27T10:01:12.470Z,112.50
2022-12-27T10:02:12.423Z,112.50
2022-12-27T10:03:12.280Z,5.63
2022-12-27T10:04:12.492Z,5.63
2022-12-27T10:05:21.244Z,11.25
2022-12-27T10:06:12.303Z,5.63
2022-12-27T10:07:12.171Z,5.63
2022-12-27T10:08:12.139Z,0.00
2022-12-27T10:09:12.107Z,5.63
2022-12-27T10:10:12.082Z,16.88
2022-12-27T10:11:12.056Z,33.75
2022-12-27T10:12:12.032Z,90.00
2022-12-27T10:13:12.009Z,39.38
2022-12-27T10:14:11.967Z,0.00
2022-12-27T10:15:11.936Z,11.25
2022-12-27T10:16:11.981Z,67.50
2022-12-27T10:17:11.877Z,106.88
2022-12-27T10:18:11.858Z,78.75
2022-12-27T10:19:11.820Z,101.25
2022-12-27T10:20:11.794Z,73.13
2022-12-27T10:21:11.764Z,16.88
2022-12-27T10:22:11.864Z,5.63
2022-12-27T10:23:11.706Z,28.13
2022-12-27T10:24:11.681Z,11.25
2022-12-27T10:25:11.650Z,16.88
2022-12-27T10:26:11.620Z,39.38
2022-12-27T10:27:11.595Z,39.38
2022-12-27T10:28:11.568Z,11.25
2022-12-27T10:29:11.561Z,61.88
2022-12-27T10:30:11.510Z,16.88
2022-12-27T10:31:11.516Z,39.38
2022-12-27T10:32:11.446Z,39.38
2022-12-27T10:33:11.414Z,0.00
2022-12-27T10:34:11.396Z,16.88
2022-12-27T10:35:11.369Z,45.00
2022-12-27T10:36:11.361Z,39.38
2022-12-27T10:37:11.303Z,45.00
2022-12-27T10:38:11.369Z,22.50
2022-12-27T10:39:11.247Z,0.00
2022-12-27T10:40:11.221Z,0.00
2022-12-27T10:41:11.190Z,11.25
2022-12-27T10:42:11.170Z,135.00
2022-12-27T10:43:11.127Z,56.25
2022-12-27T10:44:11.106Z,16.88
2022-12-27T10:45:11.086Z,0.00
2022-12-27T10:46:11.108Z,11.25
2022-12-27T10:47:11.083Z,22.50
2022-12-27T10:48:10.994Z,22.50
2022-12-27T10:49:26.301Z,45.00
2022-12-27T10:50:10.948Z,56.25
2022-12-27T10:51:10.908Z,11.25
2022-12-27T10:52:10.898Z,5.63
2022-12-27T10:53:10.851Z,0.00
2022-12-27T10:54:10.817Z,5.63
2022-12-27T10:55:10.786Z,11.25
2022-12-27T10:56:10.788Z,67.50
2022-12-27T10:57:10.733Z,28.13
2022-12-27T10:58:10.707Z,28.13
2022-12-27T10:59:10.679Z,61.88
2022-12-27T11:00:10.651Z,5.63
2022-12-27T11:01:10.702Z,0.00
2022-12-27T11:02:10.737Z,11.25
2022-12-27T11:03:10.566Z,56.25
2022-12-27T11:04:15.933Z,5.63
2022-12-27T11:05:10.504Z,5.63
2022-12-27T11:06:10.479Z,11.25
2022-12-27T11:07:10.449Z,106.88
2022-12-27T11:08:10.420Z,5.63
2022-12-27T11:09:10.396Z,5.63
2022-12-27T11:10:10.363Z,78.75
2022-12-27T11:11:10.342Z,28.13
2022-12-27T11:12:10.308Z,5.63
2022-12-27T11:13:10.282Z,5.63
2022-12-27T11:14:10.253Z,22.50
2022-12-27T11:15:10.221Z,22.50
2022-12-27T11:16:10.237Z,5.63
2022-12-27T11:17:10.190Z,22.50
2022-12-27T11:18:10.137Z,16.88
2022-12-27T11:19:10.110Z,16.88
2022-12-27T11:20:10.097Z,16.88
2022-12-27T11:21:17.666Z,11.25
2022-12-27T11:22:10.035Z,5.63
2022-12-27T11:23:10.003Z,11.25
2022-12-27T11:24:09.968Z,0.00
2022-12-27T11:25:09.955Z,11.25
2022-12-27T11:26:09.915Z,16.88
2022-12-27T11:27:09.885Z,11.25
2022-12-27T11:28:09.853Z,11.25
2022-12-27T11:29:09.825Z,11.25
2022-12-27T11:30:09.796Z,11.25
2022-12-27T11:31:09.805Z,5.63
2022-12-27T11:32:09.743Z,11.25
2022-12-27T11:33:09.753Z,5.63
2022-12-27T11:34:09.691Z,11.25
2022-12-27T11:35:09.665Z,5.63
2022-12-27T11:36:09.643Z,11.25
2022-12-27T11:37:09.603Z,5.63
2022-12-27T11:38:09.575Z,0.00
2022-12-27T11:39:09.552Z,0.00
2022-12-27T11:40:09.521Z,11.25
2022-12-27T11:41:09.498Z,11.25
2022-12-27T11:42:09.469Z,5.63
2022-12-27T11:43:09.465Z,11.25
2022-12-27T11:44:09.411Z,5.63
2022-12-27T11:45:09.381Z,5.63
2022-12-27T11:46:09.350Z,5.63
2022-12-27T11:47:09.368Z,0.00
2022-12-27T11:48:09.293Z,0.00
2022-12-27T11:49:09.286Z,0.00
2022-12-27T11:50:09.239Z,0.00
2022-12-27T11:51:09.212Z,0.00
2022-12-27T11:52:09.188Z,0.00
2022-12-27T11:53:09.173Z,5.63
2022-12-27T11:54:09.138Z,11.25
2022-12-27T11:55:09.250Z,11.25
2022-12-27T11:56:09.073Z,11.25
2022-12-27T11:57:09.045Z,11.25
2022-12-27T11:58:09.018Z,11.25
2022-12-27T11:59:08.987Z,11.25
2022-12-27T12:00:08.965Z,5.63
2022-12-27T12:01:08.950Z,5.63
2022-12-27T12:02:09.031Z,11.25
2022-12-27T12:03:08.921Z,11.25
2022-12-27T12:04:08.845Z,16.88
2022-12-27T12:05:08.842Z,11.25
2022-12-27T12:06:08.796Z,11.25
2022-12-27T12:07:08.764Z,11.25
2022-12-27T12:08:08.738Z,16.88
2022-12-27T12:09:08.707Z,11.25
2022-12-27T12:10:08.677Z,16.88
2022-12-27T12:11:08.649Z,16.88
2022-12-27T12:12:08.621Z,16.88
2022-12-27T12:13:08.593Z,16.88
2022-12-27T12:14:08.564Z,16.88
2022-12-27T12:15:08.547Z,16.88
2022-12-27T12:16:08.541Z,16.88
2022-12-27T12:17:08.490Z,16.88
2022-12-27T12:18:08.452Z,16.88
2022-12-27T12:19:08.428Z,16.88
2022-12-27T12:20:08.404Z,16.88
2022-12-27T12:21:08.389Z,16.88
2022-12-27T12:22:08.339Z,16.88
2022-12-27T12:23:08.317Z,16.88
2022-12-27T12:24:08.283Z,16.88
2022-12-27T12:25:08.259Z,16.88
2022-12-27T12:26:08.233Z,16.88
2022-12-27T12:27:08.215Z,11.25
2022-12-27T12:28:23.329Z,11.25
2022-12-27T12:29:08.157Z,11.25
2022-12-27T12:30:08.119Z,11.25
2022-12-27T12:31:08.113Z,11.25
2022-12-27T12:32:08.232Z,11.25
2022-12-27T12:33:08.031Z,11.25
2022-12-27T12:34:08.008Z,11.25
2022-12-27T12:35:07.985Z,5.63
2022-12-27T12:36:07.964Z,11.25
2022-12-27T12:37:07.943Z,11.25
2022-12-27T12:38:07.900Z,11.25
2022-12-27T12:39:07.872Z,11.25
2022-12-27T12:40:07.841Z,5.63
2022-12-27T12:41:07.818Z,11.25
2022-12-27T12:42:07.782Z,11.25
2022-12-27T12:43:07.847Z,11.25
2022-12-27T12:44:07.779Z,11.25
2022-12-27T12:45:07.788Z,11.25
2022-12-27T12:46:07.729Z,11.25
2022-12-27T12:47:07.741Z,11.25
2022-12-27T12:48:07.641Z,11.25
2022-12-27T12:49:07.589Z,11.25
2022-12-27T12:50:13.197Z,5.63
2022-12-27T12:51:07.535Z,5.63
2022-12-27T12:52:07.516Z,11.25
2022-12-27T12:53:07.551Z,11.25
2022-12-27T12:54:07.458Z,11.25
2022-12-27T12:55:07.423Z,5.63
2022-12-27T12:56:07.395Z,5.63
2022-12-27T12:57:07.376Z,5.63
2022-12-27T12:58:07.340Z,5.63
2022-12-27T12:59:07.329Z,5.63
2022-12-27T13:00:07.298Z,5.63
2022-12-27T13:01:07.302Z,5.63
2022-12-27T13:02:07.464Z,5.63
2022-12-27T13:03:07.365Z,5.63
2022-12-27T13:04:07.185Z,5.63
2022-12-27T13:05:07.148Z,5.63
2022-12-27T13:06:07.119Z,5.63
2022-12-27T13:07:07.101Z,5.63
2022-12-27T13:08:07.083Z,5.63
2022-12-27T13:09:07.057Z,5.63
2022-12-27T13:10:07.013Z,5.63
2022-12-27T13:11:06.991Z,5.63
2022-12-27T13:12:06.954Z,5.63
2022-12-27T13:13:06.933Z,5.63
2022-12-27T13:14:06.898Z,5.63